sensor_id;sensor_type;location;lat;lon;timestamp;pressure;altitude;pressure_sealevel;temperature;humidity
44659;BME280;30378;50.186;8.644;2022-08-03T00:01:46;100273.00;;;15.09;100.00
44659;BME280;30378;50.186;8.644;2022-08-03T00:04:13;100276.41;;;15.15;100.00
44659;BME280;30378;50.186;8.644;2022-08-03T00:06:40;100271.50;;;15.20;100.00
44659;BME280;30378;50.186;8.644;2022-08-03T00:09:07;100266.63;;;15.17;100.00
44659;BME280;30378;50.186;8.644;2022-08-03T00:11:35;100279.03;;;15.11;100.00
44659;BME280;30378;50.186;8.644;2022-08-03T00:14:04;100277.56;;;15.05;100.00
44659;BME280;30378;50.186;8.644;2022-08-03T00:16:31;100279.69;;;14.99;100.00
44659;BME280;30378;50.186;8.644;2022-08-03T00:18:59;100279.38;;;14.92;100.00
44659;BME280;30378;50.186;8.644;2022-08-03T00:21:27;100274.81;;;14.87;100.00
44659;BME280;30378;50.186;8.644;2022-08-03T00:23:55;100271.56;;;14.85;100.00
44659;BME280;30378;50.186;8.644;2022-08-03T00:26:22;100275.78;;;14.83;100.00
44659;BME280;30378;50.186;8.644;2022-08-03T00:28:49;100272.22;;;14.82;100.00
44659;BME280;30378;50.186;8.644;2022-08-03T00:31:16;100274.16;;;14.82;100.00
44659;BME280;30378;50.186;8.644;2022-08-03T00:33:43;100269.44;;;14.82;100.00
44659;BME280;30378;50.186;8.644;2022-08-03T00:36:10;100266.19;;;14.80;100.00
44659;BME280;30378;50.186;8.644;2022-08-03T00:38:37;100273.69;;;14.80;100.00
44659;BME280;30378;50.186;8.644;2022-08-03T00:41:04;100266.34;;;14.84;100.00
44659;BME280;30378;50.186;8.644;2022-08-03T00:43:31;100272.69;;;14.84;100.00
44659;BME280;30378;50.186;8.644;2022-08-03T00:45:58;100274.81;;;14.87;100.00
44659;BME280;30378;50.186;8.644;2022-08-03T00:48:25;100272.69;;;14.84;100.00
44659;BME280;30378;50.186;8.644;2022-08-03T00:50:52;100270.09;;;14.79;100.00
44659;BME280;30378;50.186;8.644;2022-08-03T00:53:20;100273.69;;;14.71;100.00
44659;BME280;30378;50.186;8.644;2022-08-03T00:55:47;100279.53;;;14.61;100.00
44659;BME280;30378;50.186;8.644;2022-08-03T00:58:14;100279.88;;;14.59;100.00
44659;BME280;30378;50.186;8.644;2022-08-03T01:00:41;100279.03;;;14.59;100.00
44659;BME280;30378;50.186;8.644;2022-08-03T01:03:09;100273.81;;;14.57;100.00
44659;BME280;30378;50.186;8.644;2022-08-03T01:08:41;100281.81;;;14.59;100.00
44659;BME280;30378;50.186;8.644;2022-08-03T01:14:13;100262.25;;;14.55;100.00
44659;BME280;30378;50.186;8.644;2022-08-03T01:16:56;100264.88;;;14.52;100.00
44659;BME280;30378;50.186;8.644;2022-08-03T01:19:43;100264.03;;;14.51;100.00
44659;BME280;30378;50.186;8.644;2022-08-03T01:25:33;100269.25;;;14.44;100.00
44659;BME280;30378;50.186;8.644;2022-08-03T01:31:00;100264.19;;;14.37;100.00
44659;BME280;30378;50.186;8.644;2022-08-03T01:33:39;100268.59;;;14.38;100.00
44659;BME280;30378;50.186;8.644;2022-08-03T01:36:15;100266.63;;;14.39;100.00
44659;BME280;30378;50.186;8.644;2022-08-03T01:38:49;100264.66;;;14.39;100.00
44659;BME280;30378;50.186;8.644;2022-08-03T01:41:20;100264.84;;;14.34;100.00
44659;BME280;30378;50.186;8.644;2022-08-03T01:43:49;100261.59;;;14.32;100.00
44659;BME280;30378;50.186;8.644;2022-08-03T01:46:18;100260.94;;;14.26;100.00
44659;BME280;30378;50.186;8.644;2022-08-03T01:48:47;100261.91;;;14.22;100.00
44659;BME280;30378;50.186;8.644;2022-08-03T01:51:17;100262.84;;;14.17;100.00
44659;BME280;30378;50.186;8.644;2022-08-03T01:53:47;100264.63;;;14.13;100.00
44659;BME280;30378;50.186;8.644;2022-08-03T01:56:15;100255.69;;;14.07;100.00
44659;BME280;30378;50.186;8.644;2022-08-03T01:58:44;100268.50;;;14.03;100.00
44659;BME280;30378;50.186;8.644;2022-08-03T02:01:14;100265.56;;;14.00;100.00
44659;BME280;30378;50.186;8.644;2022-08-03T02:03:44;100265.72;;;13.95;100.00
44659;BME280;30378;50.186;8.644;2022-08-03T02:06:12;100273.34;;;13.89;100.00
44659;BME280;30378;50.186;8.644;2022-08-03T02:08:52;100260.81;;;13.83;100.00
44659;BME280;30378;50.186;8.644;2022-08-03T02:11:21;100255.91;;;13.80;100.00
44659;BME280;30378;50.186;8.644;2022-08-03T02:13:50;100265.03;;;13.80;100.00
44659;BME280;30378;50.186;8.644;2022-08-03T02:16:18;100256.25;;;13.78;100.00
44659;BME280;30378;50.186;8.644;2022-08-03T02:18:47;100268.75;;;13.76;100.00
44659;BME280;30378;50.186;8.644;2022-08-03T02:21:14;100270.81;;;13.70;100.00
44659;BME280;30378;50.186;8.644;2022-08-03T02:23:41;100265.66;;;13.68;100.00
44659;BME280;30378;50.186;8.644;2022-08-03T02:26:13;100258.47;;;13.67;100.00
44659;BME280;30378;50.186;8.644;2022-08-03T02:28:44;100266.13;;;13.71;100.00
44659;BME280;30378;50.186;8.644;2022-08-03T02:31:16;100265.81;;;13.72;100.00
44659;BME280;30378;50.186;8.644;2022-08-03T02:33:52;100266.59;;;13.64;100.00
44659;BME280;30378;50.186;8.644;2022-08-03T02:36:26;100267.84;;;13.58;100.00
44659;BME280;30378;50.186;8.644;2022-08-03T02:38:57;100263.47;;;13.57;100.00
44659;BME280;30378;50.186;8.644;2022-08-03T02:41:37;100267.69;;;13.54;100.00
44659;BME280;30378;50.186;8.644;2022-08-03T02:44:08;100274.97;;;13.50;100.00
44659;BME280;30378;50.186;8.644;2022-08-03T02:46:38;100275.63;;;13.47;100.00
44659;BME280;30378;50.186;8.644;2022-08-03T02:49:08;100269.09;;;13.43;100.00
44659;BME280;30378;50.186;8.644;2022-08-03T02:51:36;100270.53;;;13.40;100.00
44659;BME280;30378;50.186;8.644;2022-08-03T02:54:05;100273.25;;;13.32;100.00
44659;BME280;30378;50.186;8.644;2022-08-03T02:56:36;100260.56;;;13.31;100.00
44659;BME280;30378;50.186;8.644;2022-08-03T02:59:04;100265.56;;;13.28;100.00
44659;BME280;30378;50.186;8.644;2022-08-03T03:01:32;100262.00;;;13.28;100.00
44659;BME280;30378;50.186;8.644;2022-08-03T03:03:59;100263.03;;;13.32;100.00
44659;BME280;30378;50.186;8.644;2022-08-03T03:06:27;100258.97;;;13.29;100.00
44659;BME280;30378;50.186;8.644;2022-08-03T03:08:55;100259.94;;;13.34;100.00
44659;BME280;30378;50.186;8.644;2022-08-03T03:11:25;100256.38;;;13.33;100.00
44659;BME280;30378;50.186;8.644;2022-08-03T03:13:55;100256.28;;;13.24;100.00
44659;BME280;30378;50.186;8.644;2022-08-03T03:16:25;100258.06;;;13.20;100.00
44659;BME280;30378;50.186;8.644;2022-08-03T03:18:53;100263.06;;;13.18;100.00
44659;BME280;30378;50.186;8.644;2022-08-03T03:21:22;100264.94;;;13.09;100.00
44659;BME280;30378;50.186;8.644;2022-08-03T03:23:50;100267.22;;;13.07;100.00
44659;BME280;30378;50.186;8.644;2022-08-03T03:26:18;100276.63;;;13.06;100.00
44659;BME280;30378;50.186;8.644;2022-08-03T03:28:45;100278.09;;;13.03;100.00
44659;BME280;30378;50.186;8.644;2022-08-03T03:31:12;100276.75;;;13.01;100.00
44659;BME280;30378;50.186;8.644;2022-08-03T03:33:40;100280.66;;;13.00;100.00
44659;BME280;30378;50.186;8.644;2022-08-03T03:36:07;100277.38;;;12.98;100.00
44659;BME280;30378;50.186;8.644;2022-08-03T03:38:34;100277.19;;;12.94;100.00
44659;BME280;30378;50.186;8.644;2022-08-03T03:41:02;100275.69;;;12.88;100.00
44659;BME280;30378;50.186;8.644;2022-08-03T03:43:30;100280.22;;;12.84;100.00
44659;BME280;30378;50.186;8.644;2022-08-03T03:45:58;100277.13;;;12.85;100.00
44659;BME280;30378;50.186;8.644;2022-08-03T03:48:26;100279.38;;;12.83;100.00
44659;BME280;30378;50.186;8.644;2022-08-03T03:50:54;100283.78;;;12.84;100.00
44659;BME280;30378;50.186;8.644;2022-08-03T03:53:23;100284.28;;;12.86;100.00
44659;BME280;30378;50.186;8.644;2022-08-03T03:55:53;100281.22;;;12.88;100.00
44659;BME280;30378;50.186;8.644;2022-08-03T03:58:20;100281.53;;;12.86;100.00
44659;BME280;30378;50.186;8.644;2022-08-03T04:00:47;100273.84;;;12.83;100.00
44659;BME280;30378;50.186;8.644;2022-08-03T04:03:15;100276.75;;;12.78;100.00
44659;BME280;30378;50.186;8.644;2022-08-03T04:05:44;100283.88;;;12.79;100.00
44659;BME280;30378;50.186;8.644;2022-08-03T04:08:29;100281.63;;;12.81;100.00
44659;BME280;30378;50.186;8.644;2022-08-03T04:11:51;100277.31;;;12.89;100.00
44659;BME280;30378;50.186;8.644;2022-08-03T04:14:23;100279.16;;;12.94;100.00
44659;BME280;30378;50.186;8.644;2022-08-03T04:16:57;100293.44;;;12.96;100.00
44659;BME280;30378;50.186;8.644;2022-08-03T04:19:37;100287.28;;;12.99;100.00
44659;BME280;30378;50.186;8.644;2022-08-03T04:22:09;100285.66;;;12.98;100.00
44659;BME280;30378;50.186;8.644;2022-08-03T04:24:42;100287.28;;;12.99;100.00
44659;BME280;30378;50.186;8.644;2022-08-03T04:27:13;100291.69;;;13.00;100.00
44659;BME280;30378;50.186;8.644;2022-08-03T04:29:45;100289.44;;;13.02;100.00
44659;BME280;30378;50.186;8.644;2022-08-03T04:32:14;100288.16;;;13.08;100.00
44659;BME280;30378;50.186;8.644;2022-08-03T04:34:42;100294.38;;;13.14;100.00
44659;BME280;30378;50.186;8.644;2022-08-03T04:37:37;100283.69;;;13.21;100.00
44659;BME280;30378;50.186;8.644;2022-08-03T04:40:06;100284.59;;;13.30;100.00
44659;BME280;30378;50.186;8.644;2022-08-03T04:42:36;100286.59;;;13.38;100.00
44659;BME280;30378;50.186;8.644;2022-08-03T04:45:05;100290.53;;;13.46;100.00
44659;BME280;30378;50.186;8.644;2022-08-03T04:47:34;100294.34;;;13.59;100.00
44659;BME280;30378;50.186;8.644;2022-08-03T04:50:03;100281.75;;;13.75;100.00
44659;BME280;30378;50.186;8.644;2022-08-03T04:52:33;100281.94;;;13.87;100.00
44659;BME280;30378;50.186;8.644;2022-08-03T04:55:00;100285.28;;;14.16;100.00
44659;BME280;30378;50.186;8.644;2022-08-03T04:57:27;100278.34;;;14.53;100.00
44659;BME280;30378;50.186;8.644;2022-08-03T04:59:55;100280.16;;;14.93;100.00
44659;BME280;30378;50.186;8.644;2022-08-03T05:02:26;100265.34;;;15.62;100.00
44659;BME280;30378;50.186;8.644;2022-08-03T05:04:53;100272.28;;;15.85;100.00
44659;BME280;30378;50.186;8.644;2022-08-03T05:07:20;100268.72;;;16.15;100.00
44659;BME280;30378;50.186;8.644;2022-08-03T05:09:50;100280.47;;;17.38;100.00
44659;BME280;30378;50.186;8.644;2022-08-03T05:12:16;100269.69;;;19.28;100.00
44659;BME280;30378;50.186;8.644;2022-08-03T05:14:44;100281.81;;;21.02;100.00
44659;BME280;30378;50.186;8.644;2022-08-03T05:17:11;100293.09;;;21.94;100.00
44659;BME280;30378;50.186;8.644;2022-08-03T05:19:38;100293.78;;;21.88;94.62
44659;BME280;30378;50.186;8.644;2022-08-03T05:22:04;100294.69;;;24.25;81.92
44659;BME280;30378;50.186;8.644;2022-08-03T05:24:31;100296.22;;;24.74;70.58
44659;BME280;30378;50.186;8.644;2022-08-03T05:26:58;100302.41;;;22.52;83.66
44659;BME280;30378;50.186;8.644;2022-08-03T05:29:25;100301.94;;;22.23;93.53
44659;BME280;30378;50.186;8.644;2022-08-03T05:31:52;100305.75;;;24.04;77.02
44659;BME280;30378;50.186;8.644;2022-08-03T05:34:19;100303.13;;;24.95;68.03
44659;BME280;30378;50.186;8.644;2022-08-03T05:36:46;100296.03;;;26.81;58.86
44659;BME280;30378;50.186;8.644;2022-08-03T05:39:13;100302.44;;;26.88;58.00
44659;BME280;30378;50.186;8.644;2022-08-03T05:41:40;100303.31;;;28.12;49.85
44659;BME280;30378;50.186;8.644;2022-08-03T05:44:07;100295.09;;;28.70;49.83
44659;BME280;30378;50.186;8.644;2022-08-03T05:46:34;100301.53;;;29.04;46.94
44659;BME280;30378;50.186;8.644;2022-08-03T05:49:01;100303.06;;;30.65;42.69
44659;BME280;30378;50.186;8.644;2022-08-03T05:51:28;100295.81;;;29.93;46.58
44659;BME280;30378;50.186;8.644;2022-08-03T05:53:55;100305.78;;;30.01;43.58
44659;BME280;30378;50.186;8.644;2022-08-03T05:56:23;100305.44;;;31.47;40.30
44659;BME280;30378;50.186;8.644;2022-08-03T05:58:53;100312.38;;;31.78;39.71
44659;BME280;30378;50.186;8.644;2022-08-03T06:01:20;100300.06;;;30.72;42.96
44659;BME280;30378;50.186;8.644;2022-08-03T06:03:48;100306.25;;;31.27;40.79
44659;BME280;30378;50.186;8.644;2022-08-03T06:06:15;100308.16;;;32.03;38.89
44659;BME280;30378;50.186;8.644;2022-08-03T06:08:44;100310.78;;;31.77;39.53
44659;BME280;30378;50.186;8.644;2022-08-03T06:11:12;100306.22;;;32.46;37.15
44659;BME280;30378;50.186;8.644;2022-08-03T06:13:39;100303.66;;;33.35;37.22
44659;BME280;30378;50.186;8.644;2022-08-03T06:16:06;100306.66;;;32.44;37.59
44659;BME280;30378;50.186;8.644;2022-08-03T06:18:34;100301.50;;;32.85;39.94
44659;BME280;30378;50.186;8.644;2022-08-03T06:21:02;100304.94;;;33.73;37.62
44659;BME280;30378;50.186;8.644;2022-08-03T06:23:29;100301.63;;;33.36;36.94
44659;BME280;30378;50.186;8.644;2022-08-03T06:25:56;100296.94;;;34.98;34.25
44659;BME280;30378;50.186;8.644;2022-08-03T06:28:23;100303.13;;;33.53;35.92
44659;BME280;30378;50.186;8.644;2022-08-03T06:31:08;100301.50;;;34.16;34.19
44659;BME280;30378;50.186;8.644;2022-08-03T06:33:35;100302.38;;;32.52;35.77
44659;BME280;30378;50.186;8.644;2022-08-03T06:36:02;100293.13;;;31.33;36.56
44659;BME280;30378;50.186;8.644;2022-08-03T06:38:29;100299.78;;;32.12;37.58
44659;BME280;30378;50.186;8.644;2022-08-03T06:40:56;100289.63;;;34.75;33.60
44659;BME280;30378;50.186;8.644;2022-08-03T06:43:23;100296.19;;;35.07;34.03
44659;BME280;30378;50.186;8.644;2022-08-03T06:45:50;100294.78;;;34.89;33.65
44659;BME280;30378;50.186;8.644;2022-08-03T06:48:17;100290.81;;;33.95;33.36
44659;BME280;30378;50.186;8.644;2022-08-03T06:50:44;100298.00;;;33.74;36.51
44659;BME280;30378;50.186;8.644;2022-08-03T06:53:11;100293.91;;;35.55;33.69
44659;BME280;30378;50.186;8.644;2022-08-03T06:55:38;100301.34;;;35.93;33.08
44659;BME280;30378;50.186;8.644;2022-08-03T06:58:05;100294.25;;;35.26;33.81
44659;BME280;30378;50.186;8.644;2022-08-03T07:00:32;100309.25;;;34.51;32.09
44659;BME280;30378;50.186;8.644;2022-08-03T07:02:59;100305.03;;;35.22;32.11
44659;BME280;30378;50.186;8.644;2022-08-03T07:05:26;100310.31;;;34.44;33.81
44659;BME280;30378;50.186;8.644;2022-08-03T07:07:55;100305.28;;;34.48;33.43
44659;BME280;30378;50.186;8.644;2022-08-03T07:10:23;100305.75;;;34.69;34.08
44659;BME280;30378;50.186;8.644;2022-08-03T07:12:50;100303.03;;;34.87;34.01
44659;BME280;30378;50.186;8.644;2022-08-03T07:15:17;100303.41;;;35.52;33.03
44659;BME280;30378;50.186;8.644;2022-08-03T07:17:44;100301.78;;;35.82;32.71
44659;BME280;30378;50.186;8.644;2022-08-03T07:20:11;100302.66;;;35.61;30.62
44659;BME280;30378;50.186;8.644;2022-08-03T07:22:39;100300.09;;;34.08;32.59
44659;BME280;30378;50.186;8.644;2022-08-03T07:25:06;100293.22;;;34.88;31.83
44659;BME280;30378;50.186;8.644;2022-08-03T07:27:33;100300.13;;;34.78;30.61
44659;BME280;30378;50.186;8.644;2022-08-03T07:30:00;100309.13;;;34.54;32.24
44659;BME280;30378;50.186;8.644;2022-08-03T07:32:27;100302.97;;;34.21;32.96
44659;BME280;30378;50.186;8.644;2022-08-03T07:34:57;100300.25;;;34.96;33.54
44659;BME280;30378;50.186;8.644;2022-08-03T07:37:26;100301.13;;;35.38;32.30
44659;BME280;30378;50.186;8.644;2022-08-03T07:39:53;100303.66;;;36.26;32.18
44659;BME280;30378;50.186;8.644;2022-08-03T07:42:20;100298.34;;;34.93;30.62
44659;BME280;30378;50.186;8.644;2022-08-03T07:44:49;100305.50;;;34.41;31.83
44659;BME280;30378;50.186;8.644;2022-08-03T07:47:23;100300.31;;;35.06;33.93
44659;BME280;30378;50.186;8.644;2022-08-03T07:49:51;100299.03;;;34.28;32.44
44659;BME280;30378;50.186;8.644;2022-08-03T07:52:19;100308.47;;;35.48;32.06
44659;BME280;30378;50.186;8.644;2022-08-03T07:55:22;100309.50;;;33.57;32.96
44659;BME280;30378;50.186;8.644;2022-08-03T07:58:07;100311.34;;;34.60;31.46
44659;BME280;30378;50.186;8.644;2022-08-03T08:00:45;100304.38;;;33.78;32.80
44659;BME280;30378;50.186;8.644;2022-08-03T08:03:12;100299.56;;;35.14;33.13
44659;BME280;30378;50.186;8.644;2022-08-03T08:05:39;100299.44;;;35.18;32.42
44659;BME280;30378;50.186;8.644;2022-08-03T08:08:06;100296.28;;;35.97;31.45
44659;BME280;30378;50.186;8.644;2022-08-03T08:10:33;100292.81;;;37.13;29.95
44659;BME280;30378;50.186;8.644;2022-08-03T08:13:02;100287.34;;;37.67;30.08
44659;BME280;30378;50.186;8.644;2022-08-03T08:15:30;100286.56;;;37.24;28.09
44659;BME280;30378;50.186;8.644;2022-08-03T08:17:58;100285.84;;;36.31;28.67
44659;BME280;30378;50.186;8.644;2022-08-03T08:20:30;100280.19;;;35.41;30.96
44659;BME280;30378;50.186;8.644;2022-08-03T08:23:03;100276.31;;;35.66;31.36
44659;BME280;30378;50.186;8.644;2022-08-03T08:25:31;100274.47;;;35.81;31.39
44659;BME280;30378;50.186;8.644;2022-08-03T08:27:59;100276.59;;;38.10;28.99
44659;BME280;30378;50.186;8.644;2022-08-03T08:30:32;100280.03;;;35.13;31.78
44659;BME280;30378;50.186;8.644;2022-08-03T08:32:59;100275.28;;;35.91;30.54
44659;BME280;30378;50.186;8.644;2022-08-03T08:35:26;100272.09;;;37.18;29.41
44659;BME280;30378;50.186;8.644;2022-08-03T08:37:53;100271.81;;;37.07;29.40
44659;BME280;30378;50.186;8.644;2022-08-03T08:40:21;100269.97;;;35.21;29.62
44659;BME280;30378;50.186;8.644;2022-08-03T08:42:49;100259.56;;;37.49;29.96
44659;BME280;30378;50.186;8.644;2022-08-03T08:45:25;100267.34;;;37.82;26.89
44659;BME280;30378;50.186;8.644;2022-08-03T08:47:54;100269.72;;;37.17;29.37
44659;BME280;30378;50.186;8.644;2022-08-03T08:50:25;100268.97;;;38.07;26.92
44659;BME280;30378;50.186;8.644;2022-08-03T08:52:52;100265.00;;;38.43;28.57
44659;BME280;30378;50.186;8.644;2022-08-03T08:55:22;100275.38;;;36.65;27.63
44659;BME280;30378;50.186;8.644;2022-08-03T08:57:52;100268.63;;;35.94;29.66
44659;BME280;30378;50.186;8.644;2022-08-03T09:00:23;100264.72;;;36.19;28.75
44659;BME280;30378;50.186;8.644;2022-08-03T09:02:50;100258.66;;;36.72;28.17
44659;BME280;30378;50.186;8.644;2022-08-03T09:05:18;100268.19;;;36.60;28.20
44659;BME280;30378;50.186;8.644;2022-08-03T09:07:50;100265.34;;;35.64;29.57
44659;BME280;30378;50.186;8.644;2022-08-03T09:10:18;100263.72;;;35.13;30.33
44659;BME280;30378;50.186;8.644;2022-08-03T09:12:49;100272.25;;;35.35;28.72
44659;BME280;30378;50.186;8.644;2022-08-03T09:15:19;100254.38;;;35.53;32.43
44659;BME280;30378;50.186;8.644;2022-08-03T09:17:47;100257.34;;;37.77;29.50
44659;BME280;30378;50.186;8.644;2022-08-03T09:20:17;100261.66;;;36.87;28.96
44659;BME280;30378;50.186;8.644;2022-08-03T09:25:42;100257.22;;;36.49;28.67
44659;BME280;30378;50.186;8.644;2022-08-03T09:28:16;100259.97;;;35.66;29.15
44659;BME280;30378;50.186;8.644;2022-08-03T09:30:56;100255.41;;;34.40;30.85
44659;BME280;30378;50.186;8.644;2022-08-03T09:33:24;100264.03;;;33.54;31.67
44659;BME280;30378;50.186;8.644;2022-08-03T09:35:51;100257.25;;;33.99;30.77
44659;BME280;30378;50.186;8.644;2022-08-03T09:38:20;100255.63;;;35.52;29.93
44659;BME280;30378;50.186;8.644;2022-08-03T09:40:50;100243.69;;;35.45;31.83
44659;BME280;30378;50.186;8.644;2022-08-03T09:43:19;100249.94;;;34.90;29.76
44659;BME280;30378;50.186;8.644;2022-08-03T09:45:47;100250.41;;;33.96;29.84
44659;BME280;30378;50.186;8.644;2022-08-03T09:48:28;100248.31;;;33.36;32.09
44659;BME280;30378;50.186;8.644;2022-08-03T09:50:58;100249.41;;;32.29;32.43
44659;BME280;30378;50.186;8.644;2022-08-03T09:53:26;100239.03;;;33.07;32.03
44659;BME280;30378;50.186;8.644;2022-08-03T09:55:54;100233.72;;;34.65;30.17
44659;BME280;30378;50.186;8.644;2022-08-03T09:58:24;100231.16;;;36.47;31.20
44659;BME280;30378;50.186;8.644;2022-08-03T10:03:21;100235.81;;;35.18;28.52
44659;BME280;30378;50.186;8.644;2022-08-03T10:05:49;100246.13;;;33.41;31.38
44659;BME280;30378;50.186;8.644;2022-08-03T10:08:19;100239.22;;;34.02;30.85
44659;BME280;30378;50.186;8.644;2022-08-03T10:10:48;100231.19;;;34.89;30.36
44659;BME280;30378;50.186;8.644;2022-08-03T10:13:17;100234.31;;;35.94;31.01
44659;BME280;30378;50.186;8.644;2022-08-03T10:15:45;100233.38;;;36.52;30.13
44659;BME280;30378;50.186;8.644;2022-08-03T10:18:13;100226.34;;;33.97;30.24
44659;BME280;30378;50.186;8.644;2022-08-03T10:20:50;100216.53;;;34.33;31.45
44659;BME280;30378;50.186;8.644;2022-08-03T10:23:19;100216.78;;;34.92;28.80
44659;BME280;30378;50.186;8.644;2022-08-03T10:25:52;100226.91;;;35.56;28.57
44659;BME280;30378;50.186;8.644;2022-08-03T10:28:21;100225.50;;;34.89;30.10
44659;BME280;30378;50.186;8.644;2022-08-03T10:30:51;100219.56;;;34.74;29.88
44659;BME280;30378;50.186;8.644;2022-08-03T10:33:21;100210.38;;;34.00;30.30
44659;BME280;30378;50.186;8.644;2022-08-03T10:35:53;100195.78;;;34.77;32.44
44659;BME280;30378;50.186;8.644;2022-08-03T10:38:28;100190.34;;;36.99;30.15
44659;BME280;30378;50.186;8.644;2022-08-03T10:40:58;100191.69;;;37.55;27.46
44659;BME280;30378;50.186;8.644;2022-08-03T10:43:35;100195.56;;;36.02;28.69
44659;BME280;30378;50.186;8.644;2022-08-03T10:46:05;100191.00;;;34.52;30.01
44659;BME280;30378;50.186;8.644;2022-08-03T10:48:35;100188.88;;;35.87;28.13
44659;BME280;30378;50.186;8.644;2022-08-03T10:51:03;100190.41;;;34.79;29.05
44659;BME280;30378;50.186;8.644;2022-08-03T10:53:35;100183.88;;;35.50;29.71
44659;BME280;30378;50.186;8.644;2022-08-03T10:56:04;100188.81;;;33.77;31.10
44659;BME280;30378;50.186;8.644;2022-08-03T10:58:51;100185.47;;;33.78;31.15
44659;BME280;30378;50.186;8.644;2022-08-03T11:01:55;100178.94;;;33.30;32.24
44659;BME280;30378;50.186;8.644;2022-08-03T11:04:23;100173.03;;;33.37;31.66
44659;BME280;30378;50.186;8.644;2022-08-03T11:09:48;100169.25;;;33.41;31.18
44659;BME280;30378;50.186;8.644;2022-08-03T11:12:29;100173.03;;;33.12;31.37
44659;BME280;30378;50.186;8.644;2022-08-03T11:15:07;100158.97;;;35.60;33.13
44659;BME280;30378;50.186;8.644;2022-08-03T11:17:35;100154.16;;;37.20;30.85
44659;BME280;30378;50.186;8.644;2022-08-03T11:20:04;100164.38;;;36.50;28.81
44659;BME280;30378;50.186;8.644;2022-08-03T11:22:48;100159.03;;;36.06;29.14
44659;BME280;30378;50.186;8.644;2022-08-03T11:25:17;100159.91;;;34.23;30.83
44659;BME280;30378;50.186;8.644;2022-08-03T11:27:44;100158.66;;;33.89;30.65
44659;BME280;30378;50.186;8.644;2022-08-03T11:35:17;100160.41;;;35.15;28.85
44659;BME280;30378;50.186;8.644;2022-08-03T11:40:48;100154.56;;;33.29;31.68
44659;BME280;30378;50.186;8.644;2022-08-03T11:46:06;100152.97;;;33.28;31.24
44659;BME280;30378;50.186;8.644;2022-08-03T11:48:39;100145.50;;;34.26;31.21
44659;BME280;30378;50.186;8.644;2022-08-03T11:51:28;100140.25;;;35.96;32.13
44659;BME280;30378;50.186;8.644;2022-08-03T11:54:02;100145.88;;;37.22;30.09
44659;BME280;30378;50.186;8.644;2022-08-03T11:56:42;100140.06;;;36.98;28.64
44659;BME280;30378;50.186;8.644;2022-08-03T11:59:10;100134.16;;;36.59;29.66
44659;BME280;30378;50.186;8.644;2022-08-03T12:01:37;100148.00;;;35.09;29.08
44659;BME280;30378;50.186;8.644;2022-08-03T12:04:07;100141.97;;;34.98;29.54
44659;BME280;30378;50.186;8.644;2022-08-03T12:06:34;100136.41;;;35.62;28.85
44659;BME280;30378;50.186;8.644;2022-08-03T12:09:21;100121.44;;;36.60;31.25
44659;BME280;30378;50.186;8.644;2022-08-03T12:11:49;100118.97;;;36.86;30.38
44659;BME280;30378;50.186;8.644;2022-08-03T12:14:18;100128.53;;;37.88;28.76
44659;BME280;30378;50.186;8.644;2022-08-03T12:16:46;100128.91;;;37.57;27.69
44659;BME280;30378;50.186;8.644;2022-08-03T12:19:15;100134.63;;;37.09;28.47
44659;BME280;30378;50.186;8.644;2022-08-03T12:21:46;100126.81;;;36.76;28.62
44659;BME280;30378;50.186;8.644;2022-08-03T12:24:15;100121.47;;;35.40;29.17
44659;BME280;30378;50.186;8.644;2022-08-03T12:26:48;100116.91;;;35.11;30.20
44659;BME280;30378;50.186;8.644;2022-08-03T12:29:20;100115.56;;;35.25;28.60
44659;BME280;30378;50.186;8.644;2022-08-03T12:31:47;100110.97;;;35.18;28.94
44659;BME280;30378;50.186;8.644;2022-08-03T12:34:15;100110.75;;;35.12;29.24
44659;BME280;30378;50.186;8.644;2022-08-03T12:36:53;100113.09;;;36.01;28.63
44659;BME280;30378;50.186;8.644;2022-08-03T12:39:23;100113.97;;;34.83;29.24
44659;BME280;30378;50.186;8.644;2022-08-03T12:41:53;100117.41;;;34.69;29.45
44659;BME280;30378;50.186;8.644;2022-08-03T12:44:31;100112.56;;;34.56;29.70
44659;BME280;30378;50.186;8.644;2022-08-03T12:47:01;100108.44;;;35.29;28.49
44659;BME280;30378;50.186;8.644;2022-08-03T12:49:47;100109.13;;;35.61;29.73
44659;BME280;30378;50.186;8.644;2022-08-03T12:52:16;100103.75;;;36.00;29.82
44659;BME280;30378;50.186;8.644;2022-08-03T12:54:54;100099.88;;;36.40;28.93
44659;BME280;30378;50.186;8.644;2022-08-03T12:57:22;100104.84;;;37.06;29.36
44659;BME280;30378;50.186;8.644;2022-08-03T12:59:50;100099.72;;;37.44;27.76
44659;BME280;30378;50.186;8.644;2022-08-03T13:02:23;100095.16;;;37.04;26.33
44659;BME280;30378;50.186;8.644;2022-08-03T13:04:52;100103.06;;;37.18;28.48
44659;BME280;30378;50.186;8.644;2022-08-03T13:07:21;100103.03;;;36.51;27.87
44659;BME280;30378;50.186;8.644;2022-08-03T13:09:53;100106.59;;;35.91;28.45
44659;BME280;30378;50.186;8.644;2022-08-03T13:14:51;100085.78;;;37.03;29.87
44659;BME280;30378;50.186;8.644;2022-08-03T13:17:18;100099.56;;;36.29;27.58
44659;BME280;30378;50.186;8.644;2022-08-03T13:19:47;100097.00;;;35.39;28.90
44659;BME280;30378;50.186;8.644;2022-08-03T13:22:22;100093.88;;;35.92;28.36
44659;BME280;30378;50.186;8.644;2022-08-03T13:24:51;100091.28;;;36.40;29.29
44659;BME280;30378;50.186;8.644;2022-08-03T13:27:22;100087.38;;;35.91;29.08
44659;BME280;30378;50.186;8.644;2022-08-03T13:29:49;100090.91;;;35.00;28.53
44659;BME280;30378;50.186;8.644;2022-08-03T13:32:19;100080.72;;;35.94;29.32
44659;BME280;30378;50.186;8.644;2022-08-03T13:34:47;100080.56;;;35.89;28.55